Time;durP1;ratioP1;P1;durP2;ratioP2;P2;SDS_P1;SDS_P2;PMS_P1;PMS_P2;Temp;Humidity;BMP_temperature;BMP_pressure;BME280_temperature;BME280_humidity;BME280_pressure;Samples;Min_cycle;Max_cycle;Signal;HPM_P1;HPM_P2
2022/02/26 00:00:38;;;;;;;0.50;0.50;;;;;;;;;;5011913;28;20488;-62
2022/02/26 00:03:04;;;;;;;0.60;0.60;;;;;;;;;;5012244;28;20557;-62
2022/02/26 00:05:30;;;;;;;0.60;0.60;;;;;;;;;;5012005;28;20572;-62
2022/02/26 00:07:56;;;;;;;0.60;0.60;;;;;;;;;;5011884;28;20174;-62
2022/02/26 00:10:22;;;;;;;0.50;0.50;;;;;;;;;;5011230;28;20199;-62
2022/02/26 00:12:52;;;;;;;0.50;0.50;;;;;;;;;;5009821;28;20420;-62
2022/02/26 00:15:18;;;;;;;0.60;0.60;;;;;;;;;;5011944;28;20407;-62
2022/02/26 00:17:44;;;;;;;0.60;0.60;;;;;;;;;;5010567;28;20739;-62
2022/02/26 00:20:10;;;;;;;0.60;0.60;;;;;;;;;;5011449;28;20813;-62
2022/02/26 00:22:36;;;;;;;0.50;0.50;;;;;;;;;;5011872;28;20401;-62
2022/02/26 00:25:03;;;;;;;0.53;0.53;;;;;;;;;;5011950;28;20282;-62
2022/02/26 00:27:29;;;;;;;0.50;0.50;;;;;;;;;;5011518;28;20931;-62
2022/02/26 00:29:55;;;;;;;0.50;0.50;;;;;;;;;;5011815;28;20193;-62
2022/02/26 00:32:21;;;;;;;0.60;0.60;;;;;;;;;;5011643;28;20902;-62
2022/02/26 00:34:46;;;;;;;0.60;0.60;;;;;;;;;;5011388;28;21104;-62
2022/02/26 00:37:14;;;;;;;0.50;0.50;;;;;;;;;;5011646;28;20460;-62
2022/02/26 00:39:39;;;;;;;0.70;0.70;;;;;;;;;;5011232;28;20426;-62
2022/02/26 00:42:05;;;;;;;0.60;0.60;;;;;;;;;;5011330;28;20247;-62
2022/02/26 00:44:32;;;;;;;0.43;0.43;;;;;;;;;;5011171;28;20511;-62
2022/02/26 00:46:58;;;;;;;0.50;0.50;;;;;;;;;;5011534;28;20650;-62
2022/02/26 00:52:09;;;;;;;0.50;0.50;;;;;;;;;;5015730;28;20244;-62
2022/02/26 00:54:35;;;;;;;0.60;0.60;;;;;;;;;;5015258;28;20228;-62
2022/02/26 00:57:01;;;;;;;0.53;0.53;;;;;;;;;;4995753;28;20202;-62
2022/02/26 00:59:27;;;;;;;0.60;0.60;;;;;;;;;;4995772;28;20802;-62
2022/02/26 01:01:53;;;;;;;0.60;0.60;;;;;;;;;;5003754;28;20205;-62
2022/02/26 01:04:19;;;;;;;0.50;0.50;;;;;;;;;;5015367;28;20434;-62
2022/02/26 01:06:45;;;;;;;0.50;0.50;;;;;;;;;;5015052;28;20401;-62
2022/02/26 01:09:10;;;;;;;0.50;0.50;;;;;;;;;;5014809;28;20869;-62
2022/02/26 01:11:36;;;;;;;0.60;0.60;;;;;;;;;;5014756;28;20426;-62
2022/02/26 01:14:03;;;;;;;0.50;0.50;;;;;;;;;;5015117;28;20419;-62
2022/02/26 01:16:29;;;;;;;0.60;0.60;;;;;;;;;;5015097;28;20413;-62
2022/02/26 01:18:55;;;;;;;0.50;0.50;;;;;;;;;;5014978;28;20241;-62
2022/02/26 01:21:21;;;;;;;0.60;0.60;;;;;;;;;;5014504;28;20186;-62
2022/02/26 01:23:48;;;;;;;0.50;0.50;;;;;;;;;;5014875;28;21022;-62
2022/02/26 01:26:15;;;;;;;0.60;0.60;;;;;;;;;;5014522;28;20549;-62
2022/02/26 01:28:41;;;;;;;0.60;0.60;;;;;;;;;;5014786;28;20179;-62
2022/02/26 01:31:07;;;;;;;0.50;0.50;;;;;;;;;;5013968;28;20577;-62
2022/02/26 01:33:33;;;;;;;0.60;0.60;;;;;;;;;;5014708;28;20182;-62
2022/02/26 01:36:00;;;;;;;0.50;0.50;;;;;;;;;;5014559;28;20424;-62
2022/02/26 01:38:26;;;;;;;0.50;0.50;;;;;;;;;;5014734;28;20467;-62
2022/02/26 01:40:52;;;;;;;0.60;0.60;;;;;;;;;;5013509;28;20211;-62
2022/02/26 01:43:18;;;;;;;0.50;0.50;;;;;;;;;;5014139;28;20424;-62
2022/02/26 01:45:44;;;;;;;0.60;0.60;;;;;;;;;;5013998;28;20432;-62
2022/02/26 01:48:10;;;;;;;0.60;0.60;;;;;;;;;;5014404;28;20267;-62
2022/02/26 01:50:36;;;;;;;0.60;0.60;;;;;;;;;;5013857;28;20468;-62
2022/02/26 01:53:02;;;;;;;0.60;0.60;;;;;;;;;;5014588;28;20181;-62
2022/02/26 01:55:28;;;;;;;0.50;0.50;;;;;;;;;;5014378;28;20723;-62
2022/02/26 01:57:54;;;;;;;0.60;0.60;;;;;;;;;;5013951;28;20471;-62
2022/02/26 02:00:20;;;;;;;0.50;0.50;;;;;;;;;;5013660;28;20199;-62
2022/02/26 02:02:46;;;;;;;0.50;0.50;;;;;;;;;;5012785;28;20784;-62
2022/02/26 02:05:12;;;;;;;0.52;0.52;;;;;;;;;;5014137;28;20171;-62
2022/02/26 02:07:38;;;;;;;0.50;0.50;;;;;;;;;;5014102;28;20187;-62
2022/02/26 02:10:04;;;;;;;0.50;0.50;;;;;;;;;;5013828;28;20201;-62
2022/02/26 02:12:31;;;;;;;0.60;0.60;;;;;;;;;;5013932;28;20420;-62
2022/02/26 02:14:57;;;;;;;0.50;0.50;;;;;;;;;;5013755;28;20545;-62
2022/02/26 02:17:23;;;;;;;0.50;0.50;;;;;;;;;;5013865;28;20202;-62
2022/02/26 02:19:49;;;;;;;0.50;0.50;;;;;;;;;;5013700;28;20435;-62
2022/02/26 02:22:19;;;;;;;0.57;0.57;;;;;;;;;;5013665;28;20543;-62
2022/02/26 02:24:45;;;;;;;0.50;0.50;;;;;;;;;;5013675;28;20653;-62
2022/02/26 02:27:11;;;;;;;0.50;0.50;;;;;;;;;;5013386;28;20264;-61
2022/02/26 02:29:38;;;;;;;0.50;0.50;;;;;;;;;;5013639;28;20265;-62
2022/02/26 02:32:04;;;;;;;0.60;0.60;;;;;;;;;;5013597;28;20232;-61
2022/02/26 02:34:30;;;;;;;0.57;0.57;;;;;;;;;;5013734;28;20183;-61
2022/02/26 02:36:56;;;;;;;0.50;0.50;;;;;;;;;;5013527;28;20206;-62
2022/02/26 02:39:22;;;;;;;0.50;0.50;;;;;;;;;;5013345;28;20471;-62
2022/02/26 02:41:48;;;;;;;0.50;0.50;;;;;;;;;;5013428;28;20603;-62
2022/02/26 02:44:14;;;;;;;0.40;0.40;;;;;;;;;;5012910;28;21070;-62
2022/02/26 02:46:43;;;;;;;0.50;0.50;;;;;;;;;;5013257;28;20193;-62
2022/02/26 02:49:09;;;;;;;0.60;0.60;;;;;;;;;;5013167;28;20165;-62
2022/02/26 02:51:35;;;;;;;0.60;0.60;;;;;;;;;;5012990;28;20707;-62
2022/02/26 02:54:01;;;;;;;0.50;0.50;;;;;;;;;;5013220;28;20491;-62
2022/02/26 02:56:27;;;;;;;0.50;0.50;;;;;;;;;;5012891;28;20458;-62
2022/02/26 02:58:53;;;;;;;0.60;0.60;;;;;;;;;;5013008;28;20241;-62
2022/02/26 03:01:19;;;;;;;0.50;0.50;;;;;;;;;;5012256;28;20433;-62
2022/02/26 03:03:45;;;;;;;0.50;0.50;;;;;;;;;;5012879;28;20184;-62
2022/02/26 03:06:11;;;;;;;0.50;0.50;;;;;;;;;;5013047;28;20464;-62
2022/02/26 03:08:37;;;;;;;0.60;0.60;;;;;;;;;;5012869;28;20453;-62
2022/02/26 03:11:03;;;;;;;0.50;0.50;;;;;;;;;;5012357;28;20237;-60
2022/02/26 03:13:29;;;;;;;0.53;0.53;;;;;;;;;;5012467;28;20418;-62
2022/02/26 03:15:56;;;;;;;0.50;0.50;;;;;;;;;;5012814;28;20485;-61
2022/02/26 03:18:24;;;;;;;0.50;0.50;;;;;;;;;;5012658;28;20229;-61
2022/02/26 03:20:50;;;;;;;0.40;0.40;;;;;;;;;;5012293;28;20206;-62
2022/02/26 03:23:16;;;;;;;0.60;0.60;;;;;;;;;;5012676;28;20182;-61
2022/02/26 03:25:42;;;;;;;0.60;0.60;;;;;;;;;;5012555;28;20178;-62
2022/02/26 03:28:08;;;;;;;0.60;0.60;;;;;;;;;;5012599;28;20183;-62
2022/02/26 03:30:34;;;;;;;0.50;0.50;;;;;;;;;;5012014;28;21017;-60
2022/02/26 03:33:00;;;;;;;0.60;0.60;;;;;;;;;;5012346;28;20421;-62
2022/02/26 03:35:26;;;;;;;0.50;0.50;;;;;;;;;;5012673;28;20606;-62
2022/02/26 03:37:52;;;;;;;0.57;0.57;;;;;;;;;;5012177;28;20757;-62
2022/02/26 03:40:18;;;;;;;0.55;0.55;;;;;;;;;;5011691;28;20214;-62
2022/02/26 03:42:46;;;;;;;0.60;0.60;;;;;;;;;;5049648;23;20287;-60
2022/02/26 03:45:12;;;;;;;0.60;0.60;;;;;;;;;;5031706;28;20567;-59
2022/02/26 03:47:38;;;;;;;0.50;0.50;;;;;;;;;;5031827;28;20178;-59
2022/02/26 03:50:05;;;;;;;0.60;0.60;;;;;;;;;;5031654;28;20623;-58
2022/02/26 03:52:31;;;;;;;0.60;0.60;;;;;;;;;;5031683;28;20193;-60
2022/02/26 03:54:57;;;;;;;0.57;0.57;;;;;;;;;;5031817;28;20209;-59
2022/02/26 03:57:23;;;;;;;0.55;0.55;;;;;;;;;;5031212;28;20292;-60
2022/02/26 03:59:49;;;;;;;0.50;0.50;;;;;;;;;;5031308;28;20180;-58
2022/02/26 04:02:15;;;;;;;0.60;0.60;;;;;;;;;;5030949;28;20200;-59
2022/02/26 04:04:41;;;;;;;0.50;0.50;;;;;;;;;;5031595;28;20467;-59
2022/02/26 04:07:07;;;;;;;0.60;0.60;;;;;;;;;;5031161;28;20424;-57
2022/02/26 04:09:34;;;;;;;0.60;0.60;;;;;;;;;;5031213;28;20192;-57
2022/02/26 04:12:00;;;;;;;0.60;0.60;;;;;;;;;;5031134;28;20615;-60
2022/02/26 04:14:26;;;;;;;0.60;0.60;;;;;;;;;;5031341;28;20564;-60
2022/02/26 04:16:52;;;;;;;0.60;0.60;;;;;;;;;;5031355;28;20193;-59
2022/02/26 04:19:18;;;;;;;0.57;0.57;;;;;;;;;;5031149;28;20183;-59
2022/02/26 04:21:44;;;;;;;0.50;0.50;;;;;;;;;;5030680;28;20196;-60
2022/02/26 04:24:10;;;;;;;0.60;0.60;;;;;;;;;;5030593;28;20420;-60
2022/02/26 04:26:36;;;;;;;0.60;0.60;;;;;;;;;;5031324;28;20416;-58
2022/02/26 04:29:02;;;;;;;0.60;0.60;;;;;;;;;;5031470;28;20439;-60
2022/02/26 04:31:28;;;;;;;0.60;0.60;;;;;;;;;;5031038;28;20234;-60
2022/02/26 04:33:54;;;;;;;0.52;0.52;;;;;;;;;;5031249;28;20667;-60
2022/02/26 04:36:20;;;;;;;0.50;0.50;;;;;;;;;;5031283;28;20169;-61
2022/02/26 04:38:46;;;;;;;0.50;0.50;;;;;;;;;;5031165;28;20455;-60
2022/02/26 04:41:12;;;;;;;0.60;0.60;;;;;;;;;;5029743;28;20205;-59
2022/02/26 04:43:39;;;;;;;0.60;0.60;;;;;;;;;;5030901;28;20184;-58
2022/02/26 04:46:05;;;;;;;0.60;0.60;;;;;;;;;;5031354;28;20187;-57
2022/02/26 04:48:32;;;;;;;0.60;0.60;;;;;;;;;;5031188;28;20168;-60
2022/02/26 04:50:58;;;;;;;0.60;0.60;;;;;;;;;;5030570;28;20192;-59
2022/02/26 04:53:24;;;;;;;0.50;0.50;;;;;;;;;;5031171;28;20216;-60
2022/02/26 04:55:50;;;;;;;0.50;0.50;;;;;;;;;;5031052;28;20180;-60
2022/02/26 04:58:16;;;;;;;0.60;0.60;;;;;;;;;;5030979;28;20513;-61
2022/02/26 05:00:42;;;;;;;0.60;0.60;;;;;;;;;;5030301;28;20679;-58
2022/02/26 05:03:08;;;;;;;0.50;0.50;;;;;;;;;;5030450;28;20268;-60
2022/02/26 05:05:34;;;;;;;0.60;0.60;;;;;;;;;;5023325;28;20439;-60
2022/02/26 05:08:00;;;;;;;0.50;0.50;;;;;;;;;;5030085;28;20860;-60
2022/02/26 05:10:26;;;;;;;0.50;0.50;;;;;;;;;;5026215;28;20431;-60
2022/02/26 05:12:52;;;;;;;0.50;0.50;;;;;;;;;;5030271;28;20289;-59
2022/02/26 05:15:19;;;;;;;0.50;0.50;;;;;;;;;;5030715;28;20420;-60
2022/02/26 05:17:45;;;;;;;0.60;0.60;;;;;;;;;;5030852;28;20832;-59
2022/02/26 05:20:11;;;;;;;0.50;0.50;;;;;;;;;;5030435;28;20186;-59
2022/02/26 05:22:37;;;;;;;0.50;0.50;;;;;;;;;;5030150;28;20235;-60
2022/02/26 05:25:04;;;;;;;0.60;0.60;;;;;;;;;;5030579;28;20204;-60
2022/02/26 05:27:30;;;;;;;0.60;0.60;;;;;;;;;;5030074;28;20653;-61
2022/02/26 05:29:56;;;;;;;0.50;0.50;;;;;;;;;;5027744;28;20200;-61
2022/02/26 05:32:22;;;;;;;0.50;0.50;;;;;;;;;;5029995;28;20450;-60
2022/02/26 05:34:51;;;;;;;0.50;0.50;;;;;;;;;;5030129;28;20182;-59
2022/02/26 05:37:17;;;;;;;0.60;0.60;;;;;;;;;;5033336;28;21080;-61
2022/02/26 05:39:43;;;;;;;0.52;0.52;;;;;;;;;;5033660;28;20185;-59
2022/02/26 05:42:09;;;;;;;0.57;0.57;;;;;;;;;;5033449;28;20216;-60
2022/02/26 05:44:35;;;;;;;0.50;0.50;;;;;;;;;;5033563;28;20419;-59
2022/02/26 05:47:01;;;;;;;0.50;0.50;;;;;;;;;;5033383;28;20455;-59
2022/02/26 05:49:27;;;;;;;0.50;0.50;;;;;;;;;;5033341;28;20464;-61
2022/02/26 05:51:53;;;;;;;0.50;0.50;;;;;;;;;;5033387;28;20458;-61
2022/02/26 05:54:19;;;;;;;0.50;0.50;;;;;;;;;;5034000;28;20178;-61
2022/02/26 05:56:45;;;;;;;0.60;0.60;;;;;;;;;;5033856;28;20423;-59
2022/02/26 05:59:11;;;;;;;0.50;0.50;;;;;;;;;;5033797;28;20171;-59
2022/02/26 06:01:37;;;;;;;0.50;0.50;;;;;;;;;;5033428;28;20482;-61
2022/02/26 06:04:02;;;;;;;0.50;0.50;;;;;;;;;;5033711;28;20171;-60
2022/02/26 06:06:28;;;;;;;0.50;0.50;;;;;;;;;;5033275;28;21029;-59
2022/02/26 06:08:54;;;;;;;0.50;0.50;;;;;;;;;;5033493;28;20938;-56
2022/02/26 06:11:20;;;;;;;0.60;0.60;;;;;;;;;;5033156;28;20213;-57
2022/02/26 06:13:47;;;;;;;0.47;0.47;;;;;;;;;;5033471;28;20511;-61
2022/02/26 06:16:13;;;;;;;0.50;0.50;;;;;;;;;;5033552;28;20840;-58
2022/02/26 06:18:39;;;;;;;0.50;0.50;;;;;;;;;;5033532;28;20202;-58
2022/02/26 06:21:05;;;;;;;0.50;0.50;;;;;;;;;;5032485;28;20447;-60
2022/02/26 06:23:30;;;;;;;0.50;0.50;;;;;;;;;;5033157;28;20772;-57
2022/02/26 06:25:56;;;;;;;0.50;0.50;;;;;;;;;;5033316;28;21022;-61
2022/02/26 06:28:22;;;;;;;0.50;0.50;;;;;;;;;;5033091;28;20420;-59
2022/02/26 06:30:48;;;;;;;0.53;0.53;;;;;;;;;;5030014;28;20920;-60
2022/02/26 06:33:14;;;;;;;0.50;0.50;;;;;;;;;;5024749;28;20491;-59
2022/02/26 06:35:41;;;;;;;0.50;0.50;;;;;;;;;;5033385;28;20258;-58
2022/02/26 06:38:07;;;;;;;0.50;0.50;;;;;;;;;;5032779;28;20468;-59
2022/02/26 06:40:33;;;;;;;0.40;0.40;;;;;;;;;;5032372;28;20178;-57
2022/02/26 06:42:59;;;;;;;0.50;0.50;;;;;;;;;;5032684;28;20228;-61
2022/02/26 06:45:25;;;;;;;0.50;0.50;;;;;;;;;;5032578;28;20839;-61
2022/02/26 06:47:51;;;;;;;0.50;0.50;;;;;;;;;;5031293;28;20534;-61
2022/02/26 06:50:17;;;;;;;0.50;0.50;;;;;;;;;;5030505;28;20511;-59
2022/02/26 06:52:43;;;;;;;0.50;0.50;;;;;;;;;;5030722;28;20511;-60
2022/02/26 06:55:09;;;;;;;0.50;0.50;;;;;;;;;;5030958;28;20451;-60
2022/02/26 06:57:35;;;;;;;0.50;0.50;;;;;;;;;;5031061;28;20472;-58
2022/02/26 07:00:01;;;;;;;0.50;0.50;;;;;;;;;;5031752;28;20192;-60
2022/02/26 07:02:28;;;;;;;0.50;0.50;;;;;;;;;;5031576;28;20993;-62
2022/02/26 07:04:53;;;;;;;0.50;0.50;;;;;;;;;;5031855;28;20178;-59
2022/02/26 07:07:19;;;;;;;0.50;0.50;;;;;;;;;;5032651;28;20211;-59
2022/02/26 07:09:47;;;;;;;0.50;0.50;;;;;;;;;;5032105;28;20748;-60
2022/02/26 07:12:13;;;;;;;0.50;0.50;;;;;;;;;;5031592;28;20978;-60
2022/02/26 07:14:39;;;;;;;0.50;0.50;;;;;;;;;;5031358;28;20223;-59
2022/02/26 07:17:05;;;;;;;0.50;0.50;;;;;;;;;;5032400;28;20637;-59
2022/02/26 07:19:31;;;;;;;0.50;0.50;;;;;;;;;;5031878;28;20525;-59
2022/02/26 07:21:59;;;;;;;0.50;0.50;;;;;;;;;;5031304;28;20228;-59
2022/02/26 07:24:25;;;;;;;0.50;0.50;;;;;;;;;;5030363;28;20784;-59
2022/02/26 07:26:51;;;;;;;0.50;0.50;;;;;;;;;;5032299;28;20236;-60
2022/02/26 07:29:17;;;;;;;0.50;0.50;;;;;;;;;;5031632;28;20464;-60
2022/02/26 07:31:43;;;;;;;0.50;0.50;;;;;;;;;;5031998;28;20424;-61
2022/02/26 07:34:09;;;;;;;0.50;0.50;;;;;;;;;;5028884;28;20897;-60
2022/02/26 07:36:35;;;;;;;0.50;0.50;;;;;;;;;;5027140;28;20530;-59
2022/02/26 07:39:01;;;;;;;0.50;0.50;;;;;;;;;;5027641;28;20502;-59
2022/02/26 07:41:27;;;;;;;0.50;0.50;;;;;;;;;;5029733;28;20456;-60
2022/02/26 07:43:53;;;;;;;0.50;0.50;;;;;;;;;;5029786;28;20239;-60
2022/02/26 07:46:19;;;;;;;0.47;0.47;;;;;;;;;;5031998;28;20437;-60
2022/02/26 07:48:45;;;;;;;0.50;0.50;;;;;;;;;;5031429;28;20188;-60
2022/02/26 07:51:11;;;;;;;0.50;0.50;;;;;;;;;;5030839;28;20212;-61
2022/02/26 07:53:37;;;;;;;0.50;0.50;;;;;;;;;;5029678;28;20437;-60
2022/02/26 07:56:03;;;;;;;0.50;0.50;;;;;;;;;;5031951;28;20517;-60
2022/02/26 07:58:29;;;;;;;0.60;0.60;;;;;;;;;;5031586;28;20292;-59
2022/02/26 08:00:55;;;;;;;0.60;0.60;;;;;;;;;;5031227;28;20220;-60
2022/02/26 08:03:21;;;;;;;0.50;0.50;;;;;;;;;;5028838;28;20167;-59
2022/02/26 08:05:47;;;;;;;0.50;0.50;;;;;;;;;;5028386;28;20858;-60
2022/02/26 08:08:13;;;;;;;0.50;0.50;;;;;;;;;;5031550;28;20429;-59
2022/02/26 08:10:39;;;;;;;0.50;0.50;;;;;;;;;;5031749;28;20426;-59
2022/02/26 08:13:05;;;;;;;0.50;0.50;;;;;;;;;;5029579;28;20548;-59
2022/02/26 08:15:31;;;;;;;0.50;0.50;;;;;;;;;;5031140;28;20435;-59
2022/02/26 08:17:58;;;;;;;0.50;0.50;;;;;;;;;;5013631;28;20690;-60
2022/02/26 08:20:24;;;;;;;0.50;0.50;;;;;;;;;;5023211;28;20179;-58
2022/02/26 08:22:51;;;;;;;0.50;0.50;;;;;;;;;;5011807;28;20198;-58
2022/02/26 08:25:18;;;;;;;0.50;0.50;;;;;;;;;;5012014;28;20171;-59
2022/02/26 08:27:44;;;;;;;0.50;0.50;;;;;;;;;;5029401;28;20544;-57
2022/02/26 08:30:11;;;;;;;0.50;0.50;;;;;;;;;;5011811;28;20177;-58
2022/02/26 08:32:37;;;;;;;0.50;0.50;;;;;;;;;;5017217;28;20292;-60
2022/02/26 08:35:04;;;;;;;0.50;0.50;;;;;;;;;;5038470;28;20171;-60
2022/02/26 08:37:30;;;;;;;0.50;0.50;;;;;;;;;;5050047;28;20590;-60
2022/02/26 08:39:56;;;;;;;0.50;0.50;;;;;;;;;;5027070;28;20549;-59
2022/02/26 08:42:22;;;;;;;0.50;0.50;;;;;;;;;;5012101;28;20242;-60
2022/02/26 08:44:48;;;;;;;0.40;0.40;;;;;;;;;;5024886;28;20183;-60
2022/02/26 08:47:15;;;;;;;0.50;0.50;;;;;;;;;;5011465;28;20237;-60
2022/02/26 08:49:41;;;;;;;0.50;0.50;;;;;;;;;;5010910;28;20181;-58
2022/02/26 08:52:07;;;;;;;0.50;0.50;;;;;;;;;;5011191;28;20286;-60
2022/02/26 08:54:33;;;;;;;0.50;0.50;;;;;;;;;;5011580;28;20194;-59
2022/02/26 08:57:01;;;;;;;0.50;0.50;;;;;;;;;;5019387;28;20625;-61
2022/02/26 08:59:27;;;;;;;0.40;0.40;;;;;;;;;;5030933;28;20191;-60
2022/02/26 09:01:53;;;;;;;0.50;0.50;;;;;;;;;;5030475;28;20197;-61
2022/02/26 09:04:19;;;;;;;0.50;0.50;;;;;;;;;;5029196;28;20177;-61
2022/02/26 09:06:45;;;;;;;0.40;0.40;;;;;;;;;;5029182;28;20939;-61
2022/02/26 09:09:11;;;;;;;0.50;0.50;;;;;;;;;;5031148;28;20419;-59
2022/02/26 09:11:37;;;;;;;0.50;0.50;;;;;;;;;;5029554;28;20996;-60
2022/02/26 09:14:04;;;;;;;0.50;0.50;;;;;;;;;;5034885;28;20257;-61
2022/02/26 09:16:30;;;;;;;0.40;0.40;;;;;;;;;;5025830;28;20195;-60
2022/02/26 09:18:56;;;;;;;0.30;0.30;;;;;;;;;;5015042;28;20205;-60
2022/02/26 09:21:22;;;;;;;0.50;0.50;;;;;;;;;;5019803;28;20471;-59
2022/02/26 09:23:48;;;;;;;0.50;0.50;;;;;;;;;;5029921;28;20427;-58
2022/02/26 09:26:14;;;;;;;0.50;0.50;;;;;;;;;;5034483;28;20415;-60
2022/02/26 09:28:40;;;;;;;0.50;0.50;;;;;;;;;;5024331;28;20699;-59
2022/02/26 09:31:07;;;;;;;0.50;0.50;;;;;;;;;;5032484;28;20454;-60
2022/02/26 09:33:33;;;;;;;0.50;0.50;;;;;;;;;;5034400;28;20176;-59
2022/02/26 09:35:59;;;;;;;0.50;0.50;;;;;;;;;;5034528;28;20513;-59
2022/02/26 09:38:26;;;;;;;0.40;0.40;;;;;;;;;;5019748;28;20479;-60
2022/02/26 09:40:56;;;;;;;0.50;0.50;;;;;;;;;;5024491;28;20186;-59
2022/02/26 09:43:22;;;;;;;0.45;0.45;;;;;;;;;;5035539;28;20260;-60
2022/02/26 09:45:49;;;;;;;0.40;0.40;;;;;;;;;;5034495;28;20651;-60
2022/02/26 09:48:15;;;;;;;0.40;0.40;;;;;;;;;;5034336;28;20176;-60
2022/02/26 09:50:41;;;;;;;0.50;0.50;;;;;;;;;;5028469;28;20177;-60
2022/02/26 09:53:08;;;;;;;0.60;0.60;;;;;;;;;;5014388;28;20427;-60
2022/02/26 09:55:34;;;;;;;0.50;0.50;;;;;;;;;;5014397;28;20185;-59
2022/02/26 09:58:00;;;;;;;0.50;0.50;;;;;;;;;;5014182;28;20200;-61
2022/02/26 10:00:26;;;;;;;0.50;0.50;;;;;;;;;;5016555;28;20177;-61
2022/02/26 10:02:52;;;;;;;0.50;0.50;;;;;;;;;;5033931;28;20722;-60
2022/02/26 10:05:20;;;;;;;0.50;0.50;;;;;;;;;;5033866;28;20408;-60
2022/02/26 10:07:49;;;;;;;0.60;0.60;;;;;;;;;;5033741;28;20476;-60
2022/02/26 10:10:16;;;;;;;0.50;0.50;;;;;;;;;;5032074;28;20707;-57
2022/02/26 10:12:43;;;;;;;0.50;0.50;;;;;;;;;;5013794;28;20205;-60
2022/02/26 10:15:42;;;;;;;0.50;0.50;;;;;;;;;;5012253;28;20198;-60
2022/02/26 10:18:12;;;;;;;0.40;0.40;;;;;;;;;;4985477;28;20216;-60
2022/02/26 10:20:45;;;;;;;0.40;0.40;;;;;;;;;;5033318;28;20172;-61
2022/02/26 10:23:15;;;;;;;0.40;0.40;;;;;;;;;;5032264;28;20197;-62
2022/02/26 10:25:41;;;;;;;0.40;0.40;;;;;;;;;;5033922;28;20239;-61
2022/02/26 10:28:10;;;;;;;0.40;0.40;;;;;;;;;;5029594;28;20412;-60
2022/02/26 10:30:38;;;;;;;0.50;0.50;;;;;;;;;;5013506;28;20409;-61
2022/02/26 10:33:05;;;;;;;0.40;0.40;;;;;;;;;;5023585;28;20411;-61
2022/02/26 10:35:42;;;;;;;0.40;0.40;;;;;;;;;;5017803;28;20900;-61
2022/02/26 10:38:14;;;;;;;0.40;0.40;;;;;;;;;;5013350;28;20483;-61
2022/02/26 10:40:57;;;;;;;0.40;0.40;;;;;;;;;;5013402;28;20455;-61
2022/02/26 10:43:41;;;;;;;0.40;0.40;;;;;;;;;;5013363;28;20412;-59
2022/02/26 10:46:14;;;;;;;0.40;0.40;;;;;;;;;;5032887;28;20427;-60
2022/02/26 10:48:41;;;;;;;0.40;0.40;;;;;;;;;;5033368;28;20173;-60
2022/02/26 10:51:13;;;;;;;0.40;0.40;;;;;;;;;;5034061;28;20779;-59
2022/02/26 10:53:40;;;;;;;0.40;0.40;;;;;;;;;;5033020;28;20177;-58
2022/02/26 10:56:06;;;;;;;0.40;0.40;;;;;;;;;;5013651;28;20189;-60
2022/02/26 10:58:32;;;;;;;0.40;0.40;;;;;;;;;;5013117;28;20258;-60
2022/02/26 11:01:03;;;;;;;0.50;0.50;;;;;;;;;;5012704;28;20408;-59
2022/02/26 11:03:29;;;;;;;0.50;0.50;;;;;;;;;;5012924;28;20401;-60
2022/02/26 11:05:55;;;;;;;0.40;0.40;;;;;;;;;;5030192;28;20184;-60
2022/02/26 11:08:22;;;;;;;0.50;0.50;;;;;;;;;;5032447;28;20415;-60
2022/02/26 11:10:51;;;;;;;0.50;0.50;;;;;;;;;;5032338;28;20201;-60
2022/02/26 11:13:18;;;;;;;0.50;0.50;;;;;;;;;;5032600;28;20201;-61
2022/02/26 11:15:44;;;;;;;0.40;0.40;;;;;;;;;;5016574;28;20177;-58
2022/02/26 11:18:12;;;;;;;0.50;0.50;;;;;;;;;;5012821;28;20635;-60
2022/02/26 11:20:39;;;;;;;0.40;0.40;;;;;;;;;;5019078;28;20576;-60
2022/02/26 11:23:05;;;;;;;0.50;0.50;;;;;;;;;;5024728;28;20248;-60
2022/02/26 11:25:31;;;;;;;0.50;0.50;;;;;;;;;;5022508;28;20215;-60
2022/02/26 11:27:57;;;;;;;0.40;0.40;;;;;;;;;;5032302;28;20181;-59
2022/02/26 11:30:30;;;;;;;0.40;0.40;;;;;;;;;;5022076;28;20178;-59
2022/02/26 11:32:56;;;;;;;0.50;0.50;;;;;;;;;;5029773;28;20496;-59
2022/02/26 11:35:26;;;;;;;0.50;0.50;;;;;;;;;;5019150;28;20268;-60
2022/02/26 11:37:58;;;;;;;0.40;0.40;;;;;;;;;;5032423;28;20299;-60
2022/02/26 11:40:24;;;;;;;0.50;0.50;;;;;;;;;;5023317;28;20216;-59
2022/02/26 11:42:52;;;;;;;0.40;0.40;;;;;;;;;;5012416;28;20615;-60
2022/02/26 11:45:23;;;;;;;0.60;0.60;;;;;;;;;;5012442;28;20616;-59
2022/02/26 11:47:53;;;;;;;0.57;0.57;;;;;;;;;;5012236;28;20241;-59
2022/02/26 11:50:23;;;;;;;0.40;0.40;;;;;;;;;;5012501;28;20633;-60
2022/02/26 11:52:51;;;;;;;0.50;0.50;;;;;;;;;;5023217;28;20279;-58
2022/02/26 11:55:29;;;;;;;0.50;0.50;;;;;;;;;;5032275;28;20211;-59
2022/02/26 11:57:56;;;;;;;0.50;0.50;;;;;;;;;;5032347;28;20599;-58
2022/02/26 12:00:22;;;;;;;0.50;0.50;;;;;;;;;;5031697;28;20177;-60
2022/02/26 12:03:07;;;;;;;0.50;0.50;;;;;;;;;;5030861;28;20200;-60
2022/02/26 12:05:33;;;;;;;0.47;0.47;;;;;;;;;;5031412;28;20173;-61
2022/02/26 12:07:59;;;;;;;0.50;0.50;;;;;;;;;;5030964;28;20210;-60
2022/02/26 12:10:28;;;;;;;0.40;0.40;;;;;;;;;;5029096;28;20502;-60
2022/02/26 12:12:54;;;;;;;0.50;0.50;;;;;;;;;;5031720;28;20514;-58
2022/02/26 12:15:27;;;;;;;0.40;0.40;;;;;;;;;;5031786;28;20707;-59
2022/02/26 12:17:55;;;;;;;0.50;0.50;;;;;;;;;;5031690;28;20196;-59
2022/02/26 12:20:30;;;;;;;0.50;0.50;;;;;;;;;;5018903;28;20754;-62
2022/02/26 12:23:06;;;;;;;0.40;0.40;;;;;;;;;;5024310;28;20446;-59
2022/02/26 12:25:37;;;;;;;0.50;0.50;;;;;;;;;;5012610;28;20233;-61
2022/02/26 12:28:07;;;;;;;0.50;0.50;;;;;;;;;;5024783;28;20187;-60
2022/02/26 12:30:51;;;;;;;0.50;0.50;;;;;;;;;;5014058;28;20208;-59
2022/02/26 12:33:19;;;;;;;0.40;0.40;;;;;;;;;;5027838;28;20181;-59
2022/02/26 12:35:45;;;;;;;0.50;0.50;;;;;;;;;;5028983;28;20299;-59
2022/02/26 12:38:21;;;;;;;0.50;0.50;;;;;;;;;;5031502;28;20250;-59
2022/02/26 12:40:47;;;;;;;0.50;0.50;;;;;;;;;;5031102;28;20173;-60
2022/02/26 12:43:13;;;;;;;0.50;0.50;;;;;;;;;;5029947;28;20183;-58
2022/02/26 12:45:39;;;;;;;0.45;0.45;;;;;;;;;;5017317;28;20272;-60
2022/02/26 12:48:05;;;;;;;0.40;0.40;;;;;;;;;;5015629;28;20220;-59
2022/02/26 12:50:34;;;;;;;0.40;0.40;;;;;;;;;;5015327;28;20891;-60
2022/02/26 12:53:00;;;;;;;0.40;0.40;;;;;;;;;;5015608;28;20573;-59
2022/02/26 12:55:26;;;;;;;0.50;0.50;;;;;;;;;;5028020;28;20189;-60
2022/02/26 12:57:52;;;;;;;0.50;0.50;;;;;;;;;;5035095;28;20750;-59
2022/02/26 13:00:22;;;;;;;0.40;0.40;;;;;;;;;;5034834;28;20303;-60
2022/02/26 13:02:53;;;;;;;0.40;0.40;;;;;;;;;;5017108;28;20506;-60
2022/02/26 13:05:19;;;;;;;0.50;0.50;;;;;;;;;;5022926;28;20292;-59
2022/02/26 13:07:44;;;;;;;0.50;0.50;;;;;;;;;;5015174;28;20185;-59
2022/02/26 13:10:10;;;;;;;0.50;0.50;;;;;;;;;;5014737;28;20400;-60
2022/02/26 13:12:39;;;;;;;0.40;0.40;;;;;;;;;;5014973;28;20433;-59
2022/02/26 13:15:07;;;;;;;0.40;0.40;;;;;;;;;;5024261;28;20423;-60
2022/02/26 13:17:34;;;;;;;0.40;0.40;;;;;;;;;;5034604;28;20211;-55
2022/02/26 13:20:01;;;;;;;0.40;0.40;;;;;;;;;;5033850;28;20179;-57
2022/02/26 13:22:28;;;;;;;0.50;0.50;;;;;;;;;;5033684;28;20188;-57
2022/02/26 13:24:54;;;;;;;0.50;0.50;;;;;;;;;;5033085;28;20207;-61
2022/02/26 13:27:23;;;;;;;0.40;0.40;;;;;;;;;;5022124;28;20181;-57
2022/02/26 13:29:50;;;;;;;0.50;0.50;;;;;;;;;;5025413;28;20431;-58
2022/02/26 13:32:18;;;;;;;0.50;0.50;;;;;;;;;;5021911;28;20378;-59
2022/02/26 13:34:50;;;;;;;0.50;0.50;;;;;;;;;;5026716;28;20553;-60
2022/02/26 13:37:16;;;;;;;0.40;0.40;;;;;;;;;;5026773;28;20684;-59
2022/02/26 13:39:44;;;;;;;0.40;0.40;;;;;;;;;;5026205;28;20272;-58
2022/02/26 13:42:10;;;;;;;0.50;0.50;;;;;;;;;;5019655;28;20216;-59
2022/02/26 13:44:37;;;;;;;0.40;0.40;;;;;;;;;;5022609;28;20595;-60
2022/02/26 13:47:13;;;;;;;0.50;0.50;;;;;;;;;;5034171;28;20400;-61
2022/02/26 13:49:43;;;;;;;0.40;0.40;;;;;;;;;;5021013;28;20184;-60
2022/02/26 13:52:16;;;;;;;0.50;0.50;;;;;;;;;;5014110;28;20204;-60
2022/02/26 13:54:43;;;;;;;0.50;0.50;;;;;;;;;;5014850;28;20181;-61
2022/02/26 13:57:11;;;;;;;0.50;0.50;;;;;;;;;;5026573;28;20204;-58
2022/02/26 13:59:37;;;;;;;0.50;0.50;;;;;;;;;;5008828;28;20184;-61
2022/02/26 14:02:03;;;;;;;0.50;0.50;;;;;;;;;;5021080;28;20564;-60
2022/02/26 14:04:30;;;;;;;0.40;0.40;;;;;;;;;;5019721;28;20185;-59
2022/02/26 14:06:56;;;;;;;0.50;0.50;;;;;;;;;;5019659;28;20568;-60
2022/02/26 14:09:23;;;;;;;0.40;0.40;;;;;;;;;;5020354;28;20188;-60
2022/02/26 14:12:07;;;;;;;0.40;0.40;;;;;;;;;;5028539;28;20799;-58
2022/02/26 14:14:35;;;;;;;0.50;0.50;;;;;;;;;;5025947;28;20180;-55
2022/02/26 14:17:02;;;;;;;0.45;0.45;;;;;;;;;;5025455;28;20230;-58
2022/02/26 14:19:28;;;;;;;0.50;0.50;;;;;;;;;;5026093;28;20543;-55
2022/02/26 14:21:55;;;;;;;0.50;0.50;;;;;;;;;;5026032;28;20621;-58
2022/02/26 14:24:23;;;;;;;0.50;0.50;;;;;;;;;;5023815;28;20173;-58
2022/02/26 14:26:50;;;;;;;0.50;0.50;;;;;;;;;;5025516;28;20177;-59
2022/02/26 14:29:16;;;;;;;0.50;0.50;;;;;;;;;;5023986;28;20268;-59
2022/02/26 14:31:42;;;;;;;0.40;0.40;;;;;;;;;;5016637;28;20745;-61
2022/02/26 14:34:11;;;;;;;0.40;0.40;;;;;;;;;;5013616;28;20421;-61
2022/02/26 14:36:38;;;;;;;0.50;0.50;;;;;;;;;;5020051;28;20437;-62
2022/02/26 14:39:03;;;;;;;0.43;0.43;;;;;;;;;;5022539;28;20204;-57
2022/02/26 14:41:29;;;;;;;0.50;0.50;;;;;;;;;;5018466;28;20547;-59
2022/02/26 14:43:55;;;;;;;0.40;0.40;;;;;;;;;;5024446;28;20520;-60